New Salem, Kentucky
Current Conditions -  °F | °C
As of 12:35 PM on Saturday 25 Oct 2014 (Local Time) from K5M9 Reporting Station
Clear Clear  
Wind Chill: 73°   Ceiling: Unl
Heat Index: 73°   Visibility: 10mi
Dew Point: 61°   Wind: 3mph
Humidity: 67%   Direction: 230°SW
Pressure: 30.02"   Gusts: NA
Location:  37.3359°N, 88.1049°W
Report Text: K5M9 251735Z AUTO 23003KT 10SM CLR 23/16 A3002 RMK AO2 T02260163
Loading
Personal Weather Stations






























Interactive Weather Map
Tropical Storm Tracking
New forecast layout! Learn more

10-Day Weather Forecast

Advertisements
Track Severe Weather on mobile